Amos, Canada
Current Conditions -  °F | °C
As of 8:46 AM on Friday 31 Oct 2014 (Local Time) from CYVO Reporting Station
Broken Clouds Broken Clouds  
Wind Chill: 18°   Ceiling: 1200
Heat Index: 27°   Visibility: 15mi
Dew Point: 27°   Wind: 8mph
Humidity: 100%   Direction: 30°NNE
Pressure: 30.11"   Gusts: NA
Location:  48.57°N, 78.12°W
Report Text: CYVO 311246Z 03007KT 15SM BKN012 M03/M03 A3011 RMK SC7 SLP219
Loading
Personal Weather Stations






























Interactive Weather Map
Tropical Storm Tracking
New forecast layout! Learn more

10-Day Weather Forecast

Advertisements
Track Severe Weather on mobile